sensor_id;sensor_type;location;lat;lon;timestamp;pressure;altitude;pressure_sealevel;temperature;humidity
62126;BME280;48112;53.282;6.150;2023-02-10T00:00:51;103489.69;;;15.42;49.14
62126;BME280;48112;53.282;6.150;2023-02-10T00:06:32;103486.13;;;15.42;48.96
62126;BME280;48112;53.282;6.150;2023-02-10T00:07:35;103484.53;;;15.41;49.10
62126;BME280;48112;53.282;6.150;2023-02-10T00:17:27;103496.25;;;15.41;49.15
62126;BME280;48112;53.282;6.150;2023-02-10T00:18:29;103489.16;;;15.40;48.93
62126;BME280;48112;53.282;6.150;2023-02-10T00:21:32;103491.91;;;15.40;48.92
62126;BME280;48112;53.282;6.150;2023-02-10T00:27:44;103498.47;;;15.39;49.06
62126;BME280;48112;53.282;6.150;2023-02-10T00:28:46;103503.91;;;15.39;48.96
62126;BME280;48112;53.282;6.150;2023-02-10T00:32:10;103509.34;;;15.39;49.11
62126;BME280;48112;53.282;6.150;2023-02-10T00:38:52;103513.16;;;15.38;49.04
62126;BME280;48112;53.282;6.150;2023-02-10T00:41:43;103506.91;;;15.38;49.12
62126;BME280;48112;53.282;6.150;2023-02-10T00:44:51;103512.34;;;15.38;49.01
62126;BME280;48112;53.282;6.150;2023-02-10T00:50:00;103512.66;;;15.36;49.12
62126;BME280;48112;53.282;6.150;2023-02-10T00:53:35;103522.72;;;15.36;48.89
62126;BME280;48112;53.282;6.150;2023-02-10T00:54:48;103520.81;;;15.36;48.82
62126;BME280;48112;53.282;6.150;2023-02-10T01:11:58;103506.72;;;15.34;49.08
62126;BME280;48112;53.282;6.150;2023-02-10T01:21:41;103522.22;;;15.34;48.94
62126;BME280;48112;53.282;6.150;2023-02-10T01:41:29;103527.47;;;15.30;48.93
62126;BME280;48112;53.282;6.150;2023-02-10T01:48:11;103532.91;;;15.30;48.99
62126;BME280;48112;53.282;6.150;2023-02-10T01:49:18;103537.28;;;15.31;48.99
62126;BME280;48112;53.282;6.150;2023-02-10T01:52:16;103535.63;;;15.30;48.81
62126;BME280;48112;53.282;6.150;2023-02-10T01:57:27;103536.75;;;15.29;49.04
62126;BME280;48112;53.282;6.150;2023-02-10T01:59:40;103539.47;;;15.29;49.01
62126;BME280;48112;53.282;6.150;2023-02-10T02:00:43;103543.81;;;15.30;49.02
62126;BME280;48112;53.282;6.150;2023-02-10T02:03:39;103541.38;;;15.29;49.01
62126;BME280;48112;53.282;6.150;2023-02-10T02:04:45;103538.66;;;15.29;49.12
62126;BME280;48112;53.282;6.150;2023-02-10T02:08:00;103537.88;;;15.28;49.13
62126;BME280;48112;53.282;6.150;2023-02-10T02:09:05;103543.34;;;15.28;49.03
62126;BME280;48112;53.282;6.150;2023-02-10T02:10:07;103540.59;;;15.28;48.66
62126;BME280;48112;53.282;6.150;2023-02-10T02:19:21;103537.38;;;15.26;48.87
62126;BME280;48112;53.282;6.150;2023-02-10T02:22:33;103542.81;;;15.26;48.98
62126;BME280;48112;53.282;6.150;2023-02-10T02:27:44;103525.69;;;15.26;49.08
62126;BME280;48112;53.282;6.150;2023-02-10T02:43:07;103533.38;;;15.24;48.97
62126;BME280;48112;53.282;6.150;2023-02-10T02:44:09;103528.72;;;15.24;48.95
62126;BME280;48112;53.282;6.150;2023-02-10T02:45:12;103528.72;;;15.24;48.99
62126;BME280;48112;53.282;6.150;2023-02-10T02:46:18;103536.88;;;15.24;48.95
62126;BME280;48112;53.282;6.150;2023-02-10T02:47:34;103530.66;;;15.24;48.96
62126;BME280;48112;53.282;6.150;2023-02-10T02:48:47;103536.88;;;15.24;48.98
62126;BME280;48112;53.282;6.150;2023-02-10T02:49:56;103527.91;;;15.24;49.08
62126;BME280;48112;53.282;6.150;2023-02-10T02:51:03;103533.38;;;15.24;49.01
62126;BME280;48112;53.282;6.150;2023-02-10T02:52:07;103535.28;;;15.23;48.97
62126;BME280;48112;53.282;6.150;2023-02-10T02:53:16;103529.81;;;15.23;48.98
62126;BME280;48112;53.282;6.150;2023-02-10T02:54:21;103527.09;;;15.23;48.90
62126;BME280;48112;53.282;6.150;2023-02-10T02:55:30;103532.56;;;15.23;48.91
62126;BME280;48112;53.282;6.150;2023-02-10T02:56:37;103529.81;;;15.23;48.95
62126;BME280;48112;53.282;6.150;2023-02-10T03:05:31;103526.59;;;15.21;48.77
62126;BME280;48112;53.282;6.150;2023-02-10T03:11:15;103544.06;;;15.20;48.74
62126;BME280;48112;53.282;6.150;2023-02-10T03:26:46;103538.59;;;15.20;49.06
62126;BME280;48112;53.282;6.150;2023-02-10T03:27:49;103536.97;;;15.19;48.89
62126;BME280;48112;53.282;6.150;2023-02-10T03:28:50;103542.41;;;15.19;48.85
62126;BME280;48112;53.282;6.150;2023-02-10T03:34:05;103536.97;;;15.19;49.10
62126;BME280;48112;53.282;6.150;2023-02-10T03:37:42;103546.25;;;15.18;49.09
62126;BME280;48112;53.282;6.150;2023-02-10T03:41:26;103549.00;;;15.18;49.03
62126;BME280;48112;53.282;6.150;2023-02-10T03:42:29;103544.66;;;15.17;49.05
62126;BME280;48112;53.282;6.150;2023-02-10T03:45:40;103544.66;;;15.17;48.81
62126;BME280;48112;53.282;6.150;2023-02-10T03:46:58;103540.00;;;15.18;49.00
62126;BME280;48112;53.282;6.150;2023-02-10T03:48:00;103544.66;;;15.17;48.99
62126;BME280;48112;53.282;6.150;2023-02-10T03:51:05;103539.22;;;15.17;48.79
62126;BME280;48112;53.282;6.150;2023-02-10T03:54:17;103546.56;;;15.17;48.87
62126;BME280;48112;53.282;6.150;2023-02-10T03:57:40;103533.78;;;15.17;49.11
62126;BME280;48112;53.282;6.150;2023-02-10T04:01:25;103532.16;;;15.16;48.92
62126;BME280;48112;53.282;6.150;2023-02-10T04:02:28;103532.97;;;15.17;49.00
62126;BME280;48112;53.282;6.150;2023-02-10T04:03:30;103536.00;;;15.15;48.79
62126;BME280;48112;53.282;6.150;2023-02-10T04:04:32;103536.00;;;15.15;48.95
62126;BME280;48112;53.282;6.150;2023-02-10T04:05:34;103537.44;;;15.13;48.97
62126;BME280;48112;53.282;6.150;2023-02-10T04:06:36;103536.81;;;15.16;48.95
62126;BME280;48112;53.282;6.150;2023-02-10T04:07:38;103536.81;;;15.16;48.92
62126;BME280;48112;53.282;6.150;2023-02-10T04:08:41;103533.28;;;15.15;48.92
62126;BME280;48112;53.282;6.150;2023-02-10T04:09:43;103533.28;;;15.15;49.19
62126;BME280;48112;53.282;6.150;2023-02-10T04:10:45;103530.56;;;15.15;48.90
62126;BME280;48112;53.282;6.150;2023-02-10T04:11:47;103535.19;;;15.15;48.84
62126;BME280;48112;53.282;6.150;2023-02-10T04:12:51;103530.56;;;15.15;48.87
62126;BME280;48112;53.282;6.150;2023-02-10T04:13:52;103527.63;;;15.12;49.02
62126;BME280;48112;53.282;6.150;2023-02-10T04:17:30;103532.47;;;15.15;49.06
62126;BME280;48112;53.282;6.150;2023-02-10T04:26:37;103529.72;;;15.15;49.06
62126;BME280;48112;53.282;6.150;2023-02-10T04:29:27;103526.53;;;15.13;49.12
62126;BME280;48112;53.282;6.150;2023-02-10T04:31:45;103521.88;;;15.13;49.02
62126;BME280;48112;53.282;6.150;2023-02-10T04:38:02;103523.50;;;15.14;48.94
62126;BME280;48112;53.282;6.150;2023-02-10T04:47:11;103534.97;;;15.11;48.79
62126;BME280;48112;53.282;6.150;2023-02-10T04:48:22;103537.69;;;15.11;48.83
62126;BME280;48112;53.282;6.150;2023-02-10T04:49:25;103539.34;;;15.12;49.06
62126;BME280;48112;53.282;6.150;2023-02-10T04:50:46;103537.69;;;15.11;48.99
62126;BME280;48112;53.282;6.150;2023-02-10T04:53:12;103541.25;;;15.12;48.90
62126;BME280;48112;53.282;6.150;2023-02-10T04:55:57;103540.41;;;15.11;49.00
62126;BME280;48112;53.282;6.150;2023-02-10T04:57:18;103538.81;;;15.10;48.94
62126;BME280;48112;53.282;6.150;2023-02-10T05:00:16;103543.16;;;15.11;49.02
62126;BME280;48112;53.282;6.150;2023-02-10T05:08:25;103543.44;;;15.10;48.90
62126;BME280;48112;53.282;6.150;2023-02-10T05:15:11;103548.88;;;15.10;48.93
62126;BME280;48112;53.282;6.150;2023-02-10T05:21:07;103542.66;;;15.09;49.05
62126;BME280;48112;53.282;6.150;2023-02-10T05:26:45;103546.47;;;15.08;48.91
62126;BME280;48112;53.282;6.150;2023-02-10T05:30:53;103550.31;;;15.07;49.03
62126;BME280;48112;53.282;6.150;2023-02-10T05:37:38;103561.19;;;15.07;49.13
62126;BME280;48112;53.282;6.150;2023-02-10T05:38:40;103562.03;;;15.08;48.81
62126;BME280;48112;53.282;6.150;2023-02-10T05:40:03;103563.94;;;15.07;49.06
62126;BME280;48112;53.282;6.150;2023-02-10T05:41:05;103562.81;;;15.08;49.10
62126;BME280;48112;53.282;6.150;2023-02-10T05:42:09;103566.66;;;15.07;48.97
62126;BME280;48112;53.282;6.150;2023-02-10T05:43:11;103561.19;;;15.07;49.03
62126;BME280;48112;53.282;6.150;2023-02-10T05:44:13;103561.19;;;15.07;49.04
62126;BME280;48112;53.282;6.150;2023-02-10T05:45:15;103563.94;;;15.07;48.83
62126;BME280;48112;53.282;6.150;2023-02-10T05:46:17;103563.09;;;15.07;48.93
62126;BME280;48112;53.282;6.150;2023-02-10T05:47:19;103555.75;;;15.07;48.97
62126;BME280;48112;53.282;6.150;2023-02-10T05:48:22;103565.81;;;15.07;48.96
62126;BME280;48112;53.282;6.150;2023-02-10T05:49:23;103567.78;;;15.06;49.09
62126;BME280;48112;53.282;6.150;2023-02-10T05:50:29;103570.50;;;15.06;49.06
62126;BME280;48112;53.282;6.150;2023-02-10T05:51:31;103572.09;;;15.07;49.04
62126;BME280;48112;53.282;6.150;2023-02-10T05:52:33;103572.09;;;15.07;49.07
62126;BME280;48112;53.282;6.150;2023-02-10T05:53:36;103570.50;;;15.06;49.12
62126;BME280;48112;53.282;6.150;2023-02-10T05:54:38;103574.00;;;15.07;49.16
62126;BME280;48112;53.282;6.150;2023-02-10T05:55:41;103572.09;;;15.07;48.99
62126;BME280;48112;53.282;6.150;2023-02-10T05:56:43;103577.53;;;15.07;49.07
62126;BME280;48112;53.282;6.150;2023-02-10T05:57:46;103577.53;;;15.07;48.91
62126;BME280;48112;53.282;6.150;2023-02-10T05:58:48;103575.94;;;15.06;48.92
62126;BME280;48112;53.282;6.150;2023-02-10T05:59:51;103576.72;;;15.07;49.03
62126;BME280;48112;53.282;6.150;2023-02-10T06:00:52;103571.28;;;15.07;49.08
62126;BME280;48112;53.282;6.150;2023-02-10T06:01:55;103567.78;;;15.06;48.83
62126;BME280;48112;53.282;6.150;2023-02-10T06:02:56;103559.59;;;15.06;49.09
62126;BME280;48112;53.282;6.150;2023-02-10T06:03:59;103559.59;;;15.06;49.10
62126;BME280;48112;53.282;6.150;2023-02-10T06:05:01;103560.69;;;15.05;48.99
62126;BME280;48112;53.282;6.150;2023-02-10T06:06:04;103555.25;;;15.05;48.79
62126;BME280;48112;53.282;6.150;2023-02-10T06:07:05;103549.81;;;15.05;48.97
62126;BME280;48112;53.282;6.150;2023-02-10T06:08:08;103557.97;;;15.05;49.09
62126;BME280;48112;53.282;6.150;2023-02-10T06:09:09;103555.25;;;15.05;49.09
62126;BME280;48112;53.282;6.150;2023-02-10T06:10:12;103564.22;;;15.06;49.03
62126;BME280;48112;53.282;6.150;2023-02-10T06:11:14;103566.13;;;15.05;49.17
62126;BME280;48112;53.282;6.150;2023-02-10T06:12:16;103557.19;;;15.05;49.09
62126;BME280;48112;53.282;6.150;2023-02-10T06:13:20;103561.50;;;15.06;49.15
62126;BME280;48112;53.282;6.150;2023-02-10T06:14:22;103559.91;;;15.05;48.87
62126;BME280;48112;53.282;6.150;2023-02-10T06:15:24;103559.59;;;15.06;48.98
62126;BME280;48112;53.282;6.150;2023-02-10T06:16:26;103563.41;;;15.05;48.91
62126;BME280;48112;53.282;6.150;2023-02-10T06:17:28;103561.81;;;15.04;48.95
62126;BME280;48112;53.282;6.150;2023-02-10T06:18:32;103564.22;;;15.06;48.99
62126;BME280;48112;53.282;6.150;2023-02-10T06:19:34;103568.06;;;15.05;48.84
62126;BME280;48112;53.282;6.150;2023-02-10T06:20:37;103557.97;;;15.05;49.09
62126;BME280;48112;53.282;6.150;2023-02-10T06:21:38;103568.84;;;15.05;48.91
62126;BME280;48112;53.282;6.150;2023-02-10T06:22:41;103562.63;;;15.05;49.08
62126;BME280;48112;53.282;6.150;2023-02-10T06:23:42;103561.81;;;15.04;48.96
62126;BME280;48112;53.282;6.150;2023-02-10T06:24:45;103556.38;;;15.04;48.91
62126;BME280;48112;53.282;6.150;2023-02-10T06:25:46;103562.63;;;15.05;48.99
62126;BME280;48112;53.282;6.150;2023-02-10T06:26:49;103561.81;;;15.04;48.85
62126;BME280;48112;53.282;6.150;2023-02-10T06:27:51;103561.81;;;15.04;49.02
62126;BME280;48112;53.282;6.150;2023-02-10T06:28:55;103564.53;;;15.04;49.08
62126;BME280;48112;53.282;6.150;2023-02-10T06:30:01;103566.13;;;15.05;49.01
62126;BME280;48112;53.282;6.150;2023-02-10T06:31:03;103556.38;;;15.04;48.95
62126;BME280;48112;53.282;6.150;2023-02-10T06:32:06;103565.34;;;15.05;49.08
62126;BME280;48112;53.282;6.150;2023-02-10T06:33:07;103566.44;;;15.03;48.97
62126;BME280;48112;53.282;6.150;2023-02-10T06:34:10;103568.06;;;15.05;49.19
62126;BME280;48112;53.282;6.150;2023-02-10T06:35:12;103566.44;;;15.03;49.05
62126;BME280;48112;53.282;6.150;2023-02-10T06:36:14;103571.88;;;15.03;49.09
62126;BME280;48112;53.282;6.150;2023-02-10T06:37:16;103571.09;;;15.03;49.07
62126;BME280;48112;53.282;6.150;2023-02-10T06:38:18;103571.09;;;15.03;49.03
62126;BME280;48112;53.282;6.150;2023-02-10T06:39:20;103572.69;;;15.04;48.71
62126;BME280;48112;53.282;6.150;2023-02-10T06:40:23;103577.31;;;15.03;49.16
62126;BME280;48112;53.282;6.150;2023-02-10T06:41:24;103576.53;;;15.03;48.91
62126;BME280;48112;53.282;6.150;2023-02-10T06:42:27;103580.34;;;15.02;49.11
62126;BME280;48112;53.282;6.150;2023-02-10T06:43:29;103592.06;;;15.02;48.96
62126;BME280;48112;53.282;6.150;2023-02-10T06:44:33;103587.44;;;15.03;48.91
62126;BME280;48112;53.282;6.150;2023-02-10T06:45:36;103592.06;;;15.02;48.91
62126;BME280;48112;53.282;6.150;2023-02-10T06:46:41;103583.88;;;15.02;49.14
62126;BME280;48112;53.282;6.150;2023-02-10T06:47:44;103581.97;;;15.03;49.20
62126;BME280;48112;53.282;6.150;2023-02-10T06:48:48;103581.16;;;15.02;49.04
62126;BME280;48112;53.282;6.150;2023-02-10T06:49:50;103576.53;;;15.03;48.87
62126;BME280;48112;53.282;6.150;2023-02-10T06:50:53;103588.50;;;15.02;48.86
62126;BME280;48112;53.282;6.150;2023-02-10T06:51:55;103581.97;;;15.03;49.10
62126;BME280;48112;53.282;6.150;2023-02-10T06:52:58;103583.06;;;15.02;48.98
62126;BME280;48112;53.282;6.150;2023-02-10T06:53:59;103581.16;;;15.02;49.18
62126;BME280;48112;53.282;6.150;2023-02-10T06:55:02;103590.16;;;15.03;48.86
62126;BME280;48112;53.282;6.150;2023-02-10T06:56:05;103580.34;;;15.02;48.94
62126;BME280;48112;53.282;6.150;2023-02-10T06:57:08;103581.97;;;15.03;49.11
62126;BME280;48112;53.282;6.150;2023-02-10T06:58:21;103597.50;;;15.02;49.08
62126;BME280;48112;53.282;6.150;2023-02-10T06:59:22;103592.06;;;15.02;49.08
62126;BME280;48112;53.282;6.150;2023-02-10T07:00:26;103596.69;;;15.02;49.15
62126;BME280;48112;53.282;6.150;2023-02-10T07:01:28;103592.88;;;15.03;49.13
62126;BME280;48112;53.282;6.150;2023-02-10T07:02:31;103587.00;;;14.96;48.76
62126;BME280;48112;53.282;6.150;2023-02-10T07:03:33;103596.69;;;15.02;49.28
62126;BME280;48112;53.282;6.150;2023-02-10T07:04:36;103593.97;;;15.02;49.08
62126;BME280;48112;53.282;6.150;2023-02-10T07:05:38;103594.25;;;15.00;49.08
62126;BME280;48112;53.282;6.150;2023-02-10T07:06:41;103596.69;;;15.02;49.14
62126;BME280;48112;53.282;6.150;2023-02-10T07:07:43;103593.13;;;15.01;48.96
62126;BME280;48112;53.282;6.150;2023-02-10T07:08:45;103602.13;;;15.02;49.26
62126;BME280;48112;53.282;6.150;2023-02-10T07:09:47;103606.75;;;15.01;48.94
62126;BME280;48112;53.282;6.150;2023-02-10T07:10:50;103605.97;;;15.01;49.02
62126;BME280;48112;53.282;6.150;2023-02-10T07:11:52;103607.56;;;15.02;49.13
62126;BME280;48112;53.282;6.150;2023-02-10T07:12:54;103608.69;;;15.01;49.08
62126;BME280;48112;53.282;6.150;2023-02-10T07:13:57;103597.78;;;15.01;49.12
62126;BME280;48112;53.282;6.150;2023-02-10T07:14:59;103590.41;;;15.01;49.02
62126;BME280;48112;53.282;6.150;2023-02-10T07:16:02;103595.06;;;15.01;49.14
62126;BME280;48112;53.282;6.150;2023-02-10T07:17:05;103589.63;;;15.01;49.12
62126;BME280;48112;53.282;6.150;2023-02-10T07:18:07;103592.66;;;14.99;48.94
62126;BME280;48112;53.282;6.150;2023-02-10T07:19:09;103576.34;;;14.99;49.06
62126;BME280;48112;53.282;6.150;2023-02-10T07:20:12;103586.09;;;15.00;48.92
62126;BME280;48112;53.282;6.150;2023-02-10T07:21:14;103583.38;;;15.00;49.25
62126;BME280;48112;53.282;6.150;2023-02-10T07:22:16;103579.84;;;15.00;49.29
62126;BME280;48112;53.282;6.150;2023-02-10T07:23:18;103590.72;;;15.00;49.19
62126;BME280;48112;53.282;6.150;2023-02-10T07:24:36;103588.81;;;15.00;49.10
62126;BME280;48112;53.282;6.150;2023-02-10T07:25:39;103578.25;;;14.99;49.16
62126;BME280;48112;53.282;6.150;2023-02-10T07:26:40;103589.94;;;14.99;48.84
62126;BME280;48112;53.282;6.150;2023-02-10T07:27:43;103600.50;;;15.01;49.17
62126;BME280;48112;53.282;6.150;2023-02-10T07:28:46;103594.25;;;15.00;49.35
62126;BME280;48112;53.282;6.150;2023-02-10T07:29:48;103608.97;;;14.99;49.45
62126;BME280;48112;53.282;6.150;2023-02-10T07:30:52;103607.03;;;15.00;49.37
62126;BME280;48112;53.282;6.150;2023-02-10T07:31:58;103609.78;;;15.00;49.07
62126;BME280;48112;53.282;6.150;2023-02-10T07:33:00;103612.50;;;15.00;48.94
62126;BME280;48112;53.282;6.150;2023-02-10T07:34:04;103601.59;;;15.00;48.91
62126;BME280;48112;53.282;6.150;2023-02-10T07:35:07;103612.50;;;15.00;49.30
62126;BME280;48112;53.282;6.150;2023-02-10T07:36:12;103604.31;;;15.00;49.16
62126;BME280;48112;53.282;6.150;2023-02-10T07:37:15;103608.16;;;14.99;48.99
62126;BME280;48112;53.282;6.150;2023-02-10T07:38:17;103616.34;;;14.99;49.16
62126;BME280;48112;53.282;6.150;2023-02-10T07:39:20;103619.06;;;14.99;49.12
62126;BME280;48112;53.282;6.150;2023-02-10T07:40:22;103615.22;;;15.00;49.06
62126;BME280;48112;53.282;6.150;2023-02-10T07:41:25;103611.69;;;14.99;48.85
62126;BME280;48112;53.282;6.150;2023-02-10T07:42:27;103610.88;;;14.99;48.95
62126;BME280;48112;53.282;6.150;2023-02-10T07:43:53;103615.22;;;15.00;49.07
62126;BME280;48112;53.282;6.150;2023-02-10T07:44:55;103615.22;;;15.00;49.22
62126;BME280;48112;53.282;6.150;2023-02-10T07:45:57;103616.34;;;14.99;49.07
62126;BME280;48112;53.282;6.150;2023-02-10T07:47:01;103615.22;;;15.00;49.16
62126;BME280;48112;53.282;6.150;2023-02-10T07:48:04;103615.22;;;15.00;49.29
62126;BME280;48112;53.282;6.150;2023-02-10T07:49:06;103608.97;;;14.99;49.32
62126;BME280;48112;53.282;6.150;2023-02-10T07:50:09;103609.09;;;14.94;48.99
62126;BME280;48112;53.282;6.150;2023-02-10T07:51:11;103613.59;;;14.99;49.17
62126;BME280;48112;53.282;6.150;2023-02-10T07:52:14;103614.44;;;14.99;49.17
62126;BME280;48112;53.282;6.150;2023-02-10T07:53:17;103613.59;;;14.99;49.01
62126;BME280;48112;53.282;6.150;2023-02-10T07:54:19;103615.50;;;14.98;49.24
62126;BME280;48112;53.282;6.150;2023-02-10T07:55:21;103615.22;;;15.00;49.17
62126;BME280;48112;53.282;6.150;2023-02-10T07:56:24;103614.44;;;14.99;49.16
62126;BME280;48112;53.282;6.150;2023-02-10T07:57:25;103613.59;;;14.99;49.15
62126;BME280;48112;53.282;6.150;2023-02-10T07:58:28;103618.22;;;14.98;49.32
62126;BME280;48112;53.282;6.150;2023-02-10T07:59:31;103613.59;;;14.99;49.23
62126;BME280;48112;53.282;6.150;2023-02-10T08:00:35;103616.34;;;14.99;49.03
62126;BME280;48112;53.282;6.150;2023-02-10T08:01:40;103618.22;;;14.98;48.72
62126;BME280;48112;53.282;6.150;2023-02-10T08:02:44;103606.56;;;14.98;49.23
62126;BME280;48112;53.282;6.150;2023-02-10T08:03:47;103608.16;;;14.99;49.31
62126;BME280;48112;53.282;6.150;2023-02-10T08:04:49;103610.88;;;14.99;49.35
62126;BME280;48112;53.282;6.150;2023-02-10T08:05:55;103612.78;;;14.98;48.97
62126;BME280;48112;53.282;6.150;2023-02-10T08:06:58;103606.56;;;14.98;48.94
62126;BME280;48112;53.282;6.150;2023-02-10T08:07:59;103607.34;;;14.98;49.21
62126;BME280;48112;53.282;6.150;2023-02-10T08:09:02;103612.78;;;14.98;49.25
62126;BME280;48112;53.282;6.150;2023-02-10T08:10:05;103612.78;;;14.98;49.27
62126;BME280;48112;53.282;6.150;2023-02-10T08:11:08;103607.34;;;14.98;49.04
62126;BME280;48112;53.282;6.150;2023-02-10T08:12:10;103607.34;;;14.98;49.07
62126;BME280;48112;53.282;6.150;2023-02-10T08:13:12;103607.34;;;14.98;49.32
62126;BME280;48112;53.282;6.150;2023-02-10T08:14:14;103608.47;;;14.97;49.14
62126;BME280;48112;53.282;6.150;2023-02-10T08:15:17;103608.16;;;14.99;49.15
62126;BME280;48112;53.282;6.150;2023-02-10T08:16:19;103606.56;;;14.98;48.97
62126;BME280;48112;53.282;6.150;2023-02-10T08:17:21;103607.34;;;14.98;49.04
62126;BME280;48112;53.282;6.150;2023-02-10T08:18:24;103606.56;;;14.98;48.97
62126;BME280;48112;53.282;6.150;2023-02-10T08:19:27;103603.84;;;14.98;49.19
62126;BME280;48112;53.282;6.150;2023-02-10T08:20:30;103604.94;;;14.97;49.14
62126;BME280;48112;53.282;6.150;2023-02-10T08:21:32;103605.75;;;14.97;49.17
62126;BME280;48112;53.282;6.150;2023-02-10T08:22:35;103599.63;;;14.92;48.98
62126;BME280;48112;53.282;6.150;2023-02-10T08:23:37;103606.56;;;14.98;49.25
62126;BME280;48112;53.282;6.150;2023-02-10T08:24:40;103604.63;;;14.98;49.20
62126;BME280;48112;53.282;6.150;2023-02-10T08:25:43;103601.13;;;14.98;49.11
62126;BME280;48112;53.282;6.150;2023-02-10T08:26:46;103604.94;;;14.97;48.98
62126;BME280;48112;53.282;6.150;2023-02-10T08:27:48;103601.13;;;14.98;49.17
62126;BME280;48112;53.282;6.150;2023-02-10T08:28:50;103594.06;;;14.97;49.33
62126;BME280;48112;53.282;6.150;2023-02-10T08:29:52;103601.13;;;14.98;49.19
62126;BME280;48112;53.282;6.150;2023-02-10T08:30:58;103595.69;;;14.98;49.24
62126;BME280;48112;53.282;6.150;2023-02-10T08:32:00;103601.13;;;14.98;49.24
62126;BME280;48112;53.282;6.150;2023-02-10T08:33:03;103598.41;;;14.98;49.06
62126;BME280;48112;53.282;6.150;2023-02-10T08:34:10;103606.56;;;14.98;49.36
62126;BME280;48112;53.282;6.150;2023-02-10T08:35:14;103597.59;;;14.97;49.17
62126;BME280;48112;53.282;6.150;2023-02-10T08:36:18;103605.44;;;14.99;49.24
62126;BME280;48112;53.282;6.150;2023-02-10T08:37:21;103607.34;;;14.98;49.07
62126;BME280;48112;53.282;6.150;2023-02-10T08:38:24;103598.41;;;14.98;49.09
62126;BME280;48112;53.282;6.150;2023-02-10T08:39:27;103601.13;;;14.98;49.30
62126;BME280;48112;53.282;6.150;2023-02-10T08:40:29;103600.31;;;14.97;49.22
62126;BME280;48112;53.282;6.150;2023-02-10T08:41:31;103604.94;;;14.97;49.27
62126;BME280;48112;53.282;6.150;2023-02-10T08:42:33;103602.22;;;14.97;49.07
62126;BME280;48112;53.282;6.150;2023-02-10T08:43:36;103603.03;;;14.97;49.24
62126;BME280;48112;53.282;6.150;2023-02-10T08:44:37;103603.84;;;14.98;49.21
62126;BME280;48112;53.282;6.150;2023-02-10T08:45:40;103607.34;;;14.98;49.21
62126;BME280;48112;53.282;6.150;2023-02-10T08:46:43;103602.72;;;14.99;49.37
62126;BME280;48112;53.282;6.150;2023-02-10T08:47:44;103601.13;;;14.98;49.27
62126;BME280;48112;53.282;6.150;2023-02-10T08:48:47;103606.56;;;14.98;49.18
62126;BME280;48112;53.282;6.150;2023-02-10T08:49:51;103598.72;;;14.96;49.04
62126;BME280;48112;53.282;6.150;2023-02-10T08:50:53;103595.69;;;14.98;49.26
62126;BME280;48112;53.282;6.150;2023-02-10T08:51:56;103592.97;;;14.98;49.25
62126;BME280;48112;53.282;6.150;2023-02-10T08:52:58;103600.31;;;14.97;49.34
62126;BME280;48112;53.282;6.150;2023-02-10T08:54:00;103595.69;;;14.98;49.14
62126;BME280;48112;53.282;6.150;2023-02-10T08:55:03;103594.88;;;14.97;49.17
62126;BME280;48112;53.282;6.150;2023-02-10T08:56:06;103596.47;;;14.98;49.24
62126;BME280;48112;53.282;6.150;2023-02-10T08:57:09;103598.72;;;14.96;49.10
62126;BME280;48112;53.282;6.150;2023-02-10T08:58:12;103594.88;;;14.97;49.29
62126;BME280;48112;53.282;6.150;2023-02-10T08:59:15;103601.13;;;14.98;49.37
62126;BME280;48112;53.282;6.150;2023-02-10T09:00:16;103595.69;;;14.98;49.28
62126;BME280;48112;53.282;6.150;2023-02-10T09:01:20;103595.69;;;14.98;49.16
62126;BME280;48112;53.282;6.150;2023-02-10T09:02:25;103599.19;;;14.98;49.33
62126;BME280;48112;53.282;6.150;2023-02-10T09:03:28;103601.13;;;14.98;49.15
62126;BME280;48112;53.282;6.150;2023-02-10T09:04:30;103601.13;;;14.98;49.13
62126;BME280;48112;53.282;6.150;2023-02-10T09:05:35;103600.00;;;14.99;49.06
62126;BME280;48112;53.282;6.150;2023-02-10T09:06:39;103602.72;;;14.99;49.04
62126;BME280;48112;53.282;6.150;2023-02-10T09:07:43;103604.63;;;14.98;49.26
62126;BME280;48112;53.282;6.150;2023-02-10T09:08:46;103594.66;;;14.94;49.00
62126;BME280;48112;53.282;6.150;2023-02-10T09:09:49;103597.28;;;14.99;49.29
62126;BME280;48112;53.282;6.150;2023-02-10T09:10:51;103600.81;;;14.99;49.27
62126;BME280;48112;53.282;6.150;2023-02-10T09:11:53;103602.72;;;14.99;49.26
62126;BME280;48112;53.282;6.150;2023-02-10T09:12:56;103602.72;;;14.99;49.26
62126;BME280;48112;53.282;6.150;2023-02-10T09:13:58;103604.63;;;14.98;49.25
62126;BME280;48112;53.282;6.150;2023-02-10T09:15:01;103610.06;;;14.98;49.11
62126;BME280;48112;53.282;6.150;2023-02-10T09:16:04;103612.78;;;14.98;49.15
62126;BME280;48112;53.282;6.150;2023-02-10T09:17:07;103608.97;;;14.99;49.43
62126;BME280;48112;53.282;6.150;2023-02-10T09:18:10;103609.78;;;15.00;49.48
62126;BME280;48112;53.282;6.150;2023-02-10T09:19:12;103608.97;;;14.99;49.13
62126;BME280;48112;53.282;6.150;2023-02-10T09:20:14;103609.78;;;15.00;49.44
62126;BME280;48112;53.282;6.150;2023-02-10T09:21:18;103604.31;;;15.00;49.41
62126;BME280;48112;53.282;6.150;2023-02-10T09:22:20;103605.97;;;15.01;49.18
62126;BME280;48112;53.282;6.150;2023-02-10T09:23:23;103610.59;;;15.00;49.39
62126;BME280;48112;53.282;6.150;2023-02-10T09:24:25;103612.19;;;15.01;49.23
62126;BME280;48112;53.282;6.150;2023-02-10T09:25:28;103612.19;;;15.01;49.22
62126;BME280;48112;53.282;6.150;2023-02-10T09:26:31;103609.19;;;15.03;49.26
62126;BME280;48112;53.282;6.150;2023-02-10T09:27:33;103609.97;;;15.03;49.30
62126;BME280;48112;53.282;6.150;2023-02-10T09:28:35;103612.41;;;15.05;49.27
62126;BME280;48112;53.282;6.150;2023-02-10T09:29:38;103612.09;;;15.07;49.68
62126;BME280;48112;53.282;6.150;2023-02-10T09:30:39;103609.06;;;15.08;49.76